Time;durP1;ratioP1;P1;durP2;ratioP2;P2;SDS_P1;SDS_P2;PMS_P1;PMS_P2;Temp;Humidity;BMP_temperature;BMP_pressure;BME280_temperature;BME280_humidity;BME280_pressure;Samples;Min_cycle;Max_cycle;Signal;HPM_P1;HPM_P2
2021/06/19 00:02:01;;;;;;;11.75;5.70;;;20.50;99.90;;;;;;5072957;28;20025;-76
2021/06/19 00:04:31;;;;;;;9.02;6.03;;;20.50;99.90;;;;;;5055123;28;20069;-75
2021/06/19 00:07:03;;;;;;;9.55;6.05;;;20.50;99.90;;;;;;5072985;28;20029;-76
2021/06/19 00:09:28;;;;;;;11.23;6.00;;;20.40;99.90;;;;;;5072775;28;20028;-76
2021/06/19 00:11:54;;;;;;;7.53;5.72;;;20.40;99.90;;;;;;5055108;28;20474;-76
2021/06/19 00:14:20;;;;;;;9.93;6.10;;;20.40;99.90;;;;;;5072973;28;20013;-75
2021/06/19 00:16:47;;;;;;;9.35;4.95;;;20.50;99.90;;;;;;5054833;28;20022;-75
2021/06/19 00:19:13;;;;;;;14.60;5.30;;;20.70;99.90;;;;;;5076274;28;20500;-75
2021/06/19 00:21:41;;;;;;;10.68;5.53;;;20.60;99.90;;;;;;5076782;28;20036;-75
2021/06/19 00:24:12;;;;;;;8.57;5.22;;;20.60;99.90;;;;;;5076858;28;20070;-75
2021/06/19 00:26:38;;;;;;;7.65;4.35;;;20.60;99.90;;;;;;5058758;28;20028;-75
2021/06/19 00:29:05;;;;;;;8.55;4.93;;;20.60;99.90;;;;;;5076886;28;20536;-75
2021/06/19 00:31:34;;;;;;;9.10;4.90;;;20.60;99.90;;;;;;5076745;28;20480;-75
2021/06/19 00:33:59;;;;;;;8.32;5.38;;;20.70;99.90;;;;;;5077017;28;20040;-75
2021/06/19 00:36:28;;;;;;;10.70;4.38;;;20.70;99.90;;;;;;5058505;28;20028;-75
2021/06/19 00:38:53;;;;;;;6.43;4.32;;;20.60;99.90;;;;;;5076601;28;20394;-77
2021/06/19 00:41:19;;;;;;;7.07;4.35;;;20.60;99.90;;;;;;5058763;28;20028;-77
2021/06/19 00:43:45;;;;;;;9.73;4.80;;;20.90;99.90;;;;;;5076376;28;20553;-77
2021/06/19 00:46:10;;;;;;;4.63;3.47;;;20.60;99.90;;;;;;5058504;28;20412;-77
2021/06/19 00:48:36;;;;;;;5.57;3.63;;;20.60;99.90;;;;;;5058196;28;20028;-78
2021/06/19 00:51:01;;;;;;;5.47;3.60;;;20.60;99.90;;;;;;5058273;28;20024;-77
2021/06/19 00:53:27;;;;;;;5.32;3.58;;;20.50;99.90;;;;;;5076645;28;20457;-77
2021/06/19 00:55:53;;;;;;;7.00;3.22;;;20.50;99.90;;;;;;5076605;28;20035;-77
2021/06/19 00:58:18;;;;;;;5.82;3.30;;;20.60;99.90;;;;;;5075898;28;20392;-77
2021/06/19 01:00:44;;;;;;;5.30;3.42;;;20.50;99.90;;;;;;5059584;28;20382;-75
2021/06/19 01:03:10;;;;;;;6.72;2.72;;;20.40;99.90;;;;;;5058121;28;20116;-74
2021/06/19 01:05:36;;;;;;;6.38;3.30;;;20.40;99.90;;;;;;5076199;28;20021;-74
2021/06/19 01:08:02;;;;;;;8.25;2.85;;;20.40;99.90;;;;;;5075985;28;20078;-74
2021/06/19 01:10:28;;;;;;;5.85;2.33;;;20.40;99.90;;;;;;5075766;28;20381;-75
2021/06/19 01:12:54;;;;;;;5.28;2.58;;;20.40;99.90;;;;;;5057996;28;20040;-75
2021/06/19 01:15:21;;;;;;;2.83;2.05;;;20.40;99.90;;;;;;5057722;28;20024;-75
2021/06/19 01:17:47;;;;;;;5.82;3.17;;;20.40;99.90;;;;;;5075621;28;20466;-75
2021/06/19 01:20:15;;;;;;;3.13;2.67;;;20.30;99.90;;;;;;5075765;28;20027;-75
2021/06/19 01:22:46;;;;;;;4.82;2.05;;;20.40;99.90;;;;;;5076038;28;20028;-75
2021/06/19 01:25:20;;;;;;;5.85;2.50;;;20.40;99.90;;;;;;5075973;28;20020;-75
2021/06/19 01:27:52;;;;;;;3.00;2.47;;;20.40;99.90;;;;;;5075414;28;20029;-75
2021/06/19 01:30:19;;;;;;;6.30;2.60;;;20.50;99.90;;;;;;5074970;28;20020;-75
2021/06/19 01:32:46;;;;;;;5.05;2.80;;;20.40;99.90;;;;;;5075353;28;20055;-75
2021/06/19 01:35:12;;;;;;;5.63;3.72;;;20.30;99.90;;;;;;5075509;28;20031;-75
2021/06/19 01:37:43;;;;;;;9.88;4.60;;;20.30;99.90;;;;;;5075552;28;20021;-75
2021/06/19 01:40:12;;;;;;;15.88;5.07;;;20.30;99.90;;;;;;5075450;28;20032;-75
2021/06/19 01:42:43;;;;;;;8.93;5.28;;;20.20;99.90;;;;;;5075515;28;20028;-74
2021/06/19 01:45:20;;;;;;;7.55;5.05;;;20.20;99.90;;;;;;5075253;28;20124;-75
2021/06/19 01:47:47;;;;;;;9.18;5.50;;;20.20;99.90;;;;;;5075124;28;20025;-74
2021/06/19 01:50:16;;;;;;;9.77;6.60;;;20.20;99.90;;;;;;5057350;28;20012;-75
2021/06/19 01:52:42;;;;;;;10.32;6.60;;;20.10;99.90;;;;;;5058388;28;20024;-75
2021/06/19 01:55:08;;;;;;;9.77;5.75;;;20.20;99.90;;;;;;5057356;28;20512;-76
2021/06/19 01:57:37;;;;;;;12.55;7.00;;;20.10;99.90;;;;;;5057084;28;20035;-75
2021/06/19 02:00:19;;;;;;;12.52;7.22;;;20.00;99.90;;;;;;5057158;28;20040;-74
2021/06/19 02:02:45;;;;;;;12.45;7.28;;;20.10;99.90;;;;;;5075132;28;20024;-74
2021/06/19 02:05:13;;;;;;;12.27;6.70;;;20.10;99.90;;;;;;5057187;28;20070;-74
2021/06/19 02:07:50;;;;;;;12.88;7.28;;;20.10;99.90;;;;;;5075100;28;20028;-74
2021/06/19 02:10:21;;;;;;;15.35;7.57;;;20.10;99.90;;;;;;5056956;28;20012;-75
2021/06/19 02:12:47;;;;;;;14.52;7.55;;;20.10;99.90;;;;;;5074949;28;20016;-75
2021/06/19 02:15:13;;;;;;;10.75;6.97;;;20.10;99.90;;;;;;5074707;28;20029;-74
2021/06/19 02:17:39;;;;;;;8.57;5.90;;;20.10;99.90;;;;;;5074794;28;20060;-75
2021/06/19 02:20:06;;;;;;;9.32;6.30;;;20.10;99.90;;;;;;5056823;28;20485;-75
2021/06/19 02:22:32;;;;;;;12.45;5.97;;;20.10;99.90;;;;;;5075503;28;20504;-74
2021/06/19 02:24:58;;;;;;;11.35;6.55;;;20.10;99.90;;;;;;5074756;28;20024;-74
2021/06/19 02:27:24;;;;;;;8.57;5.70;;;20.30;99.90;;;;;;5074610;28;20024;-75
2021/06/19 02:29:50;;;;;;;5.68;4.07;;;20.20;99.90;;;;;;5056303;28;20173;-74
2021/06/19 02:32:16;;;;;;;10.98;5.80;;;20.10;99.90;;;;;;5074633;28;20035;-74
2021/06/19 02:34:44;;;;;;;7.18;4.60;;;20.10;99.90;;;;;;5056374;28;20017;-75
2021/06/19 02:37:09;;;;;;;5.85;3.47;;;20.10;99.90;;;;;;5074384;28;20024;-75
2021/06/19 02:39:35;;;;;;;7.35;4.18;;;20.10;99.90;;;;;;5074163;28;20033;-75
2021/06/19 02:42:00;;;;;;;6.65;4.10;;;20.10;99.90;;;;;;5073514;28;20024;-75
2021/06/19 02:44:26;;;;;;;6.35;4.15;;;20.00;99.90;;;;;;5056248;28;20388;-76
2021/06/19 02:46:52;;;;;;;6.70;4.05;;;20.10;99.90;;;;;;5075039;28;20099;-76
2021/06/19 02:49:17;;;;;;;8.85;5.35;;;20.00;99.90;;;;;;5073885;28;20489;-75
2021/06/19 02:51:43;;;;;;;14.35;7.30;;;20.00;99.90;;;;;;5055753;28;20025;-75
2021/06/19 02:54:08;;;;;;;10.70;6.40;;;20.10;99.90;;;;;;5074218;28;20443;-75
2021/06/19 02:56:34;;;;;;;13.48;7.20;;;20.00;99.90;;;;;;5059544;28;20504;-77
2021/06/19 02:59:00;;;;;;;16.60;10.30;;;20.00;99.90;;;;;;5075586;28;20032;-76
2021/06/19 03:01:26;;;;;;;16.52;9.80;;;19.90;99.90;;;;;;5075287;28;20078;-76
2021/06/19 03:03:51;;;;;;;19.40;11.85;;;19.90;99.90;;;;;;5075560;28;20029;-77
2021/06/19 03:06:17;;;;;;;22.23;12.65;;;19.90;99.90;;;;;;5056440;28;20377;-77
2021/06/19 03:08:43;;;;;;;24.38;12.98;;;19.90;99.90;;;;;;5074670;28;20028;-77
2021/06/19 03:11:09;;;;;;;27.50;13.40;;;20.10;99.90;;;;;;5074425;28;20513;-77
2021/06/19 03:13:34;;;;;;;26.20;12.40;;;19.80;99.90;;;;;;5057048;28;20111;-78
2021/06/19 03:16:00;;;;;;;30.95;13.82;;;19.80;99.90;;;;;;5075497;28;20056;-76
2021/06/19 03:18:26;;;;;;;23.55;12.55;;;19.80;99.90;;;;;;5074424;28;20028;-78
2021/06/19 03:20:51;;;;;;;24.35;12.05;;;19.70;99.90;;;;;;5057392;28;20512;-78
2021/06/19 03:23:17;;;;;;;27.92;13.63;;;19.60;99.90;;;;;;5075296;28;20024;-78
2021/06/19 03:25:43;;;;;;;28.10;12.73;;;19.60;99.90;;;;;;5076514;28;20024;-79
2021/06/19 03:28:14;;;;;;;24.95;12.00;;;19.50;99.90;;;;;;5078884;28;20103;-79
2021/06/19 03:30:45;;;;;;;26.67;12.98;;;19.60;99.90;;;;;;5060029;28;20036;-79
2021/06/19 03:33:13;;;;;;;27.35;13.20;;;19.60;99.90;;;;;;5060926;28;20031;-79
2021/06/19 03:35:39;;;;;;;27.98;13.35;;;19.50;99.90;;;;;;5056262;28;20024;-78
2021/06/19 03:38:06;;;;;;;29.33;13.88;;;19.50;99.90;;;;;;5075110;28;20025;-78
2021/06/19 03:40:32;;;;;;;33.97;16.58;;;19.50;99.90;;;;;;5057322;28;20036;-78
2021/06/19 03:42:58;;;;;;;33.97;15.88;;;19.40;99.90;;;;;;5075401;28;20044;-78
2021/06/19 03:45:29;;;;;;;31.80;14.52;;;19.30;99.90;;;;;;5076681;28;20036;-78
2021/06/19 03:47:56;;;;;;;35.30;16.77;;;19.30;99.90;;;;;;5079361;28;20112;-79
2021/06/19 03:50:25;;;;;;;37.10;16.92;;;19.20;99.90;;;;;;5060776;28;20523;-79
2021/06/19 03:52:52;;;;;;;34.85;16.05;;;19.20;99.90;;;;;;5080170;28;20062;-79
2021/06/19 03:55:17;;;;;;;32.13;15.77;;;19.20;99.90;;;;;;5063797;28;20028;-78
2021/06/19 03:57:43;;;;;;;34.90;17.02;;;19.20;99.90;;;;;;5081370;28;20021;-77
2021/06/19 04:00:12;;;;;;;37.08;16.40;;;19.20;99.90;;;;;;5063475;28;20112;-78
2021/06/19 04:02:37;;;;;;;39.05;16.20;;;19.20;99.90;;;;;;5063604;28;20023;-78
2021/06/19 04:05:05;;;;;;;34.00;16.30;;;19.20;99.90;;;;;;5062753;28;20020;-78
2021/06/19 04:07:31;;;;;;;40.10;15.98;;;19.20;99.90;;;;;;5083373;28;20023;-78
2021/06/19 04:09:56;;;;;;;36.30;16.70;;;19.30;99.90;;;;;;5065851;28;20119;-78
2021/06/19 04:12:22;;;;;;;39.92;18.92;;;19.30;99.90;;;;;;5084627;28;20025;-78
2021/06/19 04:14:51;;;;;;;43.30;17.63;;;19.20;99.90;;;;;;5066255;28;20020;-78
2021/06/19 04:17:18;;;;;;;39.15;17.13;;;19.20;99.90;;;;;;5084520;28;20478;-79
2021/06/19 04:19:44;;;;;;;41.38;17.92;;;19.20;99.90;;;;;;5065546;28;20036;-80
2021/06/19 04:22:11;;;;;;;36.95;16.95;;;19.20;99.90;;;;;;5083826;28;20035;-80
2021/06/19 04:24:37;;;;;;;37.13;16.52;;;19.40;99.90;;;;;;5084235;28;20017;-81
2021/06/19 04:27:05;;;;;;;38.92;17.48;;;19.20;99.90;;;;;;5084123;28;20023;-80
2021/06/19 04:29:32;;;;;;;48.45;20.77;;;19.20;99.90;;;;;;5083666;28;20025;-81
2021/06/19 04:32:00;;;;;;;44.47;19.05;;;19.10;99.90;;;;;;5065858;28;20033;-80
2021/06/19 04:34:25;;;;;;;47.38;19.13;;;19.10;99.90;;;;;;5084215;28;20020;-80
2021/06/19 04:36:51;;;;;;;44.03;18.83;;;19.10;99.90;;;;;;5065390;28;20013;-80
2021/06/19 04:39:18;;;;;;;42.45;18.08;;;19.10;99.90;;;;;;5083526;28;20031;-80
2021/06/19 04:46:44;;;;;;;49.25;19.42;;;19.20;99.90;;;;;;5085265;28;20028;-81
2021/06/19 04:49:12;;;;;;;54.88;21.23;;;19.20;99.90;;;;;;5065660;28;20035;-81
2021/06/19 04:51:37;;;;;;;44.88;19.02;;;19.20;99.90;;;;;;5084826;28;20385;-80
2021/06/19 04:54:03;;;;;;;50.78;19.95;;;19.20;99.90;;;;;;5085164;28;20017;-80
2021/06/19 04:56:29;;;;;;;44.75;18.80;;;19.30;99.90;;;;;;5085368;28;20024;-80
2021/06/19 04:58:54;;;;;;;51.63;17.73;;;19.30;99.90;;;;;;5066982;28;20044;-81
2021/06/19 05:01:20;;;;;;;45.40;17.58;;;19.40;99.90;;;;;;5086677;28;20024;-80
2021/06/19 05:03:45;;;;;;;44.85;18.25;;;19.30;99.90;;;;;;5085244;28;20055;-79
2021/06/19 05:06:11;;;;;;;46.00;17.80;;;19.20;99.90;;;;;;5082313;28;20064;-80
2021/06/19 05:08:36;;;;;;;42.10;16.92;;;19.20;99.90;;;;;;5064355;28;20021;-80
2021/06/19 05:11:02;;;;;;;40.45;16.92;;;19.10;99.90;;;;;;5065448;28;20016;-81
2021/06/19 05:13:27;;;;;;;43.33;17.80;;;19.10;99.90;;;;;;5083964;28;20017;-80
2021/06/19 05:15:53;;;;;;;37.20;15.35;;;19.10;99.90;;;;;;5083161;28;20031;-81
2021/06/19 05:18:18;;;;;;;35.70;14.82;;;19.70;99.90;;;;;;5082870;28;20474;-80
2021/06/19 05:20:44;;;;;;;38.70;15.63;;;19.10;99.90;;;;;;5063889;28;20037;-81
2021/06/19 05:23:10;;;;;;;34.47;14.18;;;19.40;99.90;;;;;;5078391;28;20052;-81
2021/06/19 05:25:39;;;;;;;32.63;13.90;;;19.10;99.90;;;;;;5082182;28;20401;-81
2021/06/19 05:28:05;;;;;;;31.08;13.55;;;19.10;99.90;;;;;;5081372;28;20027;-81
2021/06/19 05:30:30;;;;;;;37.05;14.95;;;19.20;99.90;;;;;;5063181;28;20021;-82
2021/06/19 05:32:56;;;;;;;28.70;12.40;;;19.10;99.90;;;;;;5063053;28;20541;-81
2021/06/19 05:35:22;;;;;;;33.20;14.80;;;19.30;99.90;;;;;;5081565;28;20543;-81
2021/06/19 05:37:47;;;;;;;30.98;12.40;;;19.30;99.90;;;;;;5082799;28;20113;-81
2021/06/19 05:40:13;;;;;;;25.17;12.07;;;19.30;99.90;;;;;;5080947;28;20032;-81
2021/06/19 05:42:39;;;;;;;28.30;12.68;;;19.30;99.90;;;;;;5081421;28;20470;-81
2021/06/19 05:45:05;;;;;;;29.13;12.65;;;19.70;99.90;;;;;;5062964;28;20048;-82
2021/06/19 05:47:31;;;;;;;28.30;12.90;;;19.30;99.90;;;;;;5063274;28;20036;-82
2021/06/19 05:49:57;;;;;;;28.25;12.40;;;19.20;99.90;;;;;;5080638;28;20025;-81
2021/06/19 05:52:25;;;;;;;28.90;12.20;;;19.30;99.90;;;;;;5063341;28;20138;-81
2021/06/19 05:54:50;;;;;;;26.60;11.48;;;19.40;99.90;;;;;;5081028;28;20025;-81
2021/06/19 05:57:16;;;;;;;26.42;12.32;;;20.40;99.90;;;;;;5062871;28;20536;-81
2021/06/19 05:59:41;;;;;;;23.30;10.10;;;19.60;99.90;;;;;;5062486;28;20039;-81
2021/06/19 06:02:07;;;;;;;21.27;9.93;;;19.50;99.90;;;;;;5081644;28;20366;-81
2021/06/19 06:04:34;;;;;;;22.60;9.25;;;19.60;99.90;;;;;;5082042;28;20024;-81
2021/06/19 06:07:00;;;;;;;19.10;9.13;;;19.50;99.90;;;;;;5080991;28;20385;-81
2021/06/19 06:09:26;;;;;;;13.93;7.75;;;19.80;99.90;;;;;;5081038;28;20020;-81
2021/06/19 06:11:51;;;;;;;16.00;6.55;;;19.40;99.90;;;;;;5059729;28;20111;-75
2021/06/19 06:14:17;;;;;;;11.45;5.97;;;21.10;99.90;;;;;;5074998;28;20017;-75
2021/06/19 06:16:42;;;;;;;11.10;5.82;;;19.30;99.90;;;;;;5076734;28;20012;-77
2021/06/19 06:19:11;;;;;;;16.17;5.88;;;19.60;99.90;;;;;;5077895;28;20019;-76
2021/06/19 06:21:37;;;;;;;12.02;5.00;;;19.30;99.90;;;;;;5077580;28;20034;-77
2021/06/19 06:24:03;;;;;;;9.05;4.35;;;19.40;99.90;;;;;;5077085;28;20115;-77
2021/06/19 06:26:28;;;;;;;9.20;4.05;;;19.50;99.90;;;;;;5077014;28;20031;-77
2021/06/19 06:28:54;;;;;;;11.02;4.75;;;19.50;99.90;;;;;;5076535;28;20036;-77
2021/06/19 06:31:20;;;;;;;13.52;4.97;;;19.60;99.90;;;;;;5076791;28;20100;-77
2021/06/19 06:33:47;;;;;;;7.75;4.38;;;19.40;99.90;;;;;;5076514;28;20032;-77
2021/06/19 06:36:12;;;;;;;11.77;4.60;;;19.30;99.90;;;;;;5058161;28;20166;-77
2021/06/19 06:38:38;;;;;;;9.77;4.43;;;19.20;99.90;;;;;;5057469;28;20062;-77
2021/06/19 06:41:03;;;;;;;7.68;4.55;;;19.30;99.90;;;;;;5075617;28;20024;-77
2021/06/19 06:43:29;;;;;;;11.48;5.03;;;19.30;99.90;;;;;;5076725;28;20024;-76
2021/06/19 06:45:55;;;;;;;10.43;5.00;;;19.40;99.90;;;;;;5113331;22;20046;-78
2021/06/19 06:48:20;;;;;;;8.98;4.47;;;21.00;99.90;;;;;;5034881;28;20509;-77
2021/06/19 06:50:46;;;;;;;10.35;5.00;;;19.40;99.90;;;;;;5033354;28;20022;-79
2021/06/19 06:53:11;;;;;;;8.68;4.80;;;19.30;99.90;;;;;;5036756;28;20080;-78
2021/06/19 06:55:37;;;;;;;7.88;4.15;;;19.30;99.90;;;;;;5035386;28;20025;-78
2021/06/19 06:58:02;;;;;;;7.88;4.75;;;19.40;99.90;;;;;;5036274;28;20032;-78
2021/06/19 07:00:28;;;;;;;10.68;5.00;;;19.40;99.90;;;;;;5036305;28;20498;-78
2021/06/19 07:02:54;;;;;;;9.57;3.75;;;19.30;99.90;;;;;;5034168;28;20053;-76
2021/06/19 07:05:19;;;;;;;7.30;3.03;;;19.40;99.90;;;;;;5034042;28;20052;-76
2021/06/19 07:07:45;;;;;;;4.65;2.78;;;19.50;99.90;;;;;;5033555;28;20029;-76
2021/06/19 07:10:13;;;;;;;5.32;2.70;;;19.60;99.90;;;;;;5033648;28;20153;-76
2021/06/19 07:12:42;;;;;;;6.15;2.63;;;19.60;99.90;;;;;;5032793;28;20024;-76
2021/06/19 07:15:10;;;;;;;4.22;2.63;;;19.50;99.90;;;;;;5032364;28;20112;-76
2021/06/19 07:17:36;;;;;;;3.50;1.63;;;19.40;99.90;;;;;;5032178;28;20012;-76
2021/06/19 07:20:08;;;;;;;3.75;1.92;;;19.40;99.90;;;;;;5032203;28;20029;-75
2021/06/19 07:22:35;;;;;;;5.05;2.55;;;19.50;99.90;;;;;;5033519;28;20026;-75
2021/06/19 07:25:03;;;;;;;5.05;2.05;;;19.60;99.90;;;;;;5033568;28;20087;-75
2021/06/19 07:27:29;;;;;;;7.50;3.53;;;19.70;99.90;;;;;;5031761;28;20049;-75
2021/06/19 07:29:56;;;;;;;5.40;2.95;;;19.70;99.90;;;;;;5033409;28;20034;-76
2021/06/19 07:32:21;;;;;;;6.25;3.60;;;19.70;99.90;;;;;;5032206;28;20028;-74
2021/06/19 07:34:47;;;;;;;5.78;2.83;;;19.70;99.90;;;;;;5032174;28;20112;-74
2021/06/19 07:37:12;;;;;;;5.45;2.40;;;19.70;99.90;;;;;;5033681;28;20014;-74
2021/06/19 07:39:38;;;;;;;6.32;3.20;;;19.70;99.90;;;;;;5032079;28;20025;-74
2021/06/19 07:42:04;;;;;;;5.10;2.97;;;19.70;99.90;;;;;;5033603;28;20021;-74
2021/06/19 07:44:31;;;;;;;6.32;3.55;;;19.70;99.90;;;;;;5031873;28;20029;-74
2021/06/19 07:46:57;;;;;;;6.85;3.35;;;19.70;99.90;;;;;;5033214;28;20156;-74
2021/06/19 07:49:24;;;;;;;9.45;4.35;;;19.90;99.90;;;;;;5033108;28;20026;-74
2021/06/19 07:51:50;;;;;;;6.78;4.20;;;19.90;99.90;;;;;;5033244;28;20100;-74
2021/06/19 07:54:15;;;;;;;8.30;5.00;;;20.10;99.90;;;;;;5033263;28;20057;-74
2021/06/19 07:56:41;;;;;;;8.25;4.60;;;20.00;99.90;;;;;;5033548;28;20028;-74
2021/06/19 07:59:06;;;;;;;10.15;5.05;;;20.00;99.90;;;;;;5033527;28;20103;-74
2021/06/19 08:01:32;;;;;;;9.23;4.82;;;19.80;99.90;;;;;;5033194;28;20486;-74
2021/06/19 08:03:57;;;;;;;7.00;4.22;;;19.90;99.90;;;;;;5033563;28;20076;-76
2021/06/19 08:06:23;;;;;;;9.77;4.75;;;19.90;99.90;;;;;;5033191;28;20022;-76
2021/06/19 08:08:48;;;;;;;7.03;4.35;;;20.00;99.90;;;;;;5041986;28;20021;-80
2021/06/19 08:11:14;;;;;;;10.48;4.65;;;19.80;99.90;;;;;;5043597;28;20045;-79
2021/06/19 08:13:40;;;;;;;6.90;4.15;;;19.90;99.90;;;;;;5042459;28;20025;-79
2021/06/19 08:16:06;;;;;;;6.03;3.70;;;19.80;99.90;;;;;;5038863;28;20021;-78
2021/06/19 08:18:32;;;;;;;7.40;4.30;;;19.70;99.90;;;;;;5040728;28;20491;-78
2021/06/19 08:21:00;;;;;;;5.80;3.50;;;19.60;99.90;;;;;;5037705;28;20033;-78
2021/06/19 08:23:26;;;;;;;8.30;3.70;;;19.60;99.90;;;;;;5036473;28;20028;-78
2021/06/19 08:25:51;;;;;;;6.05;3.38;;;19.60;99.90;;;;;;5036940;28;20030;-78
2021/06/19 08:28:17;;;;;;;6.90;3.15;;;19.60;99.90;;;;;;5037563;28;20033;-78
2021/06/19 08:30:42;;;;;;;3.78;2.72;;;19.60;99.90;;;;;;5045267;28;20044;-79
2021/06/19 08:33:08;;;;;;;3.45;2.38;;;19.70;99.90;;;;;;5041475;28;20022;-78
2021/06/19 08:35:34;;;;;;;3.03;1.88;;;19.80;99.90;;;;;;5035289;28;20026;-78
2021/06/19 08:37:59;;;;;;;2.20;1.58;;;19.80;99.90;;;;;;5038095;28;20030;-78
2021/06/19 08:40:25;;;;;;;3.08;1.58;;;20.00;99.90;;;;;;5037725;28;20486;-77
2021/06/19 08:42:50;;;;;;;1.42;1.33;;;19.80;99.90;;;;;;5037174;28;20085;-76
2021/06/19 08:45:16;;;;;;;2.70;1.30;;;19.70;99.90;;;;;;5044794;28;20399;-79
2021/06/19 08:47:43;;;;;;;1.58;1.17;;;19.80;99.90;;;;;;5045287;28;20022;-80
2021/06/19 08:50:14;;;;;;;0.93;0.73;;;19.70;99.90;;;;;;5049299;28;20032;-80
2021/06/19 08:52:41;;;;;;;2.17;1.17;;;19.60;99.90;;;;;;5050378;28;20037;-80
2021/06/19 08:55:09;;;;;;;1.98;1.30;;;19.60;99.90;;;;;;5051318;28;20029;-79
2021/06/19 08:57:36;;;;;;;1.85;0.90;;;19.60;99.90;;;;;;5050850;28;20032;-80
2021/06/19 09:00:04;;;;;;;1.88;1.00;;;19.60;99.90;;;;;;5051726;28;20051;-80
2021/06/19 09:02:29;;;;;;;2.28;1.15;;;19.70;99.90;;;;;;5053304;28;20372;-80
2021/06/19 09:05:17;;;;;;;1.77;1.17;;;19.70;99.90;;;;;;5047136;28;20060;-76
2021/06/19 09:07:50;;;;;;;1.85;1.38;;;19.70;99.90;;;;;;5038980;28;20025;-79
2021/06/19 09:10:19;;;;;;;1.52;0.80;;;19.70;99.90;;;;;;5020784;28;20026;-78
2021/06/19 09:12:59;;;;;;;0.60;0.50;;;19.60;99.90;;;;;;5024879;28;20110;-78
2021/06/19 09:15:29;;;;;;;2.38;0.90;;;19.50;99.90;;;;;;5020086;28;20056;-78
2021/06/19 09:18:15;;;;;;;2.15;0.73;;;19.50;99.90;;;;;;5018731;28;20022;-78
2021/06/19 09:20:59;;;;;;;2.22;0.40;;;19.50;99.90;;;;;;5019794;28;20032;-77
2021/06/19 09:23:40;;;;;;;2.35;0.80;;;19.50;99.90;;;;;;5037418;28;20044;-78
2021/06/19 09:26:17;;;;;;;1.70;0.73;;;19.50;99.90;;;;;;5035213;28;20049;-78
2021/06/19 09:29:07;;;;;;;2.83;0.73;;;19.50;99.90;;;;;;5019088;28;20086;-78
2021/06/19 09:31:51;;;;;;;2.13;1.83;;;19.60;99.90;;;;;;5019467;28;20029;-78
2021/06/19 09:34:18;;;;;;;2.55;1.60;;;19.70;99.90;;;;;;5017703;28;20022;-77
2021/06/19 09:36:50;;;;;;;2.00;1.60;;;19.80;99.90;;;;;;5016414;28;20030;-77
2021/06/19 09:39:20;;;;;;;3.53;1.50;;;19.90;99.90;;;;;;5026631;28;20028;-79
2021/06/19 09:41:52;;;;;;;1.73;1.33;;;19.90;99.90;;;;;;5040010;28;20025;-80
2021/06/19 09:44:37;;;;;;;2.47;1.13;;;19.90;99.90;;;;;;5041481;28;20021;-80
2021/06/19 09:47:03;;;;;;;1.73;1.23;;;19.90;99.90;;;;;;5041318;28;20029;-79
2021/06/19 09:49:35;;;;;;;1.73;0.90;;;19.90;99.90;;;;;;5041008;28;20036;-79
2021/06/19 09:52:01;;;;;;;2.30;1.25;;;20.00;99.90;;;;;;5039811;28;20033;-79
2021/06/19 09:54:27;;;;;;;3.83;1.83;;;20.10;99.90;;;;;;5040628;28;20470;-80
2021/06/19 09:56:56;;;;;;;2.58;1.58;;;20.20;99.90;;;;;;5040366;28;20017;-80
2021/06/19 09:59:31;;;;;;;;;;;20.20;99.90;;;;;;5042095;28;20112;-80
2021/06/19 10:01:59;;;;;;;6.72;2.80;;;20.20;99.90;;;;;;5040821;28;19905;-80
2021/06/19 10:04:26;;;;;;;3.50;2.47;;;20.60;99.90;;;;;;5040133;28;20025;-80
2021/06/19 10:06:54;;;;;;;2.95;2.30;;;20.20;99.90;;;;;;5037782;28;20390;-79
2021/06/19 10:09:21;;;;;;;5.45;2.70;;;20.10;99.90;;;;;;5036870;28;20021;-76
2021/06/19 10:11:54;;;;;;;4.95;3.13;;;20.00;99.90;;;;;;5035158;28;20053;-78
2021/06/19 10:14:23;;;;;;;5.80;3.50;;;19.90;99.90;;;;;;5035711;28;20028;-76
2021/06/19 10:16:50;;;;;;;4.55;3.05;;;19.90;99.90;;;;;;5034030;28;20025;-74
2021/06/19 10:19:19;;;;;;;3.60;3.30;;;19.80;99.90;;;;;;5033751;28;20402;-75
2021/06/19 10:21:46;;;;;;;6.70;3.80;;;19.80;99.90;;;;;;5035022;28;20108;-75
2021/06/19 10:24:13;;;;;;;6.37;3.73;;;19.70;99.90;;;;;;5033416;28;20087;-74
2021/06/19 10:26:40;;;;;;;4.57;3.00;;;19.70;99.90;;;;;;5033315;28;20124;-74
2021/06/19 10:29:07;;;;;;;4.97;3.55;;;19.70;99.90;;;;;;5034481;28;20095;-75
2021/06/19 10:31:49;;;;;;;4.90;3.40;;;19.80;99.90;;;;;;5034549;28;20049;-75
2021/06/19 10:34:21;;;;;;;6.18;3.85;;;19.70;99.90;;;;;;5034383;28;20030;-75
2021/06/19 10:36:47;;;;;;;5.50;3.47;;;19.80;99.90;;;;;;5034616;28;20057;-75
2021/06/19 10:39:14;;;;;;;3.97;2.80;;;19.90;99.90;;;;;;5034988;28;20453;-77
2021/06/19 10:41:42;;;;;;;3.28;2.63;;;20.00;99.90;;;;;;5034535;28;20033;-76
2021/06/19 10:44:08;;;;;;;5.50;3.38;;;20.10;99.90;;;;;;5034534;28;20057;-76
2021/06/19 10:46:36;;;;;;;3.33;2.80;;;20.20;99.90;;;;;;5032923;28;20071;-76
2021/06/19 10:49:35;;;;;;;6.40;3.42;;;20.30;99.90;;;;;;5033023;28;20120;-76
2021/06/19 10:52:27;;;;;;;4.82;3.50;;;20.30;99.90;;;;;;5022504;28;20033;-76
2021/06/19 10:55:07;;;;;;;5.35;3.03;;;20.40;99.90;;;;;;5034311;28;20018;-76
2021/06/19 10:57:51;;;;;;;4.47;3.70;;;20.60;99.90;;;;;;5013118;28;20029;-76
2021/06/19 11:00:24;;;;;;;6.18;3.30;;;20.70;99.90;;;;;;5013151;28;20113;-76
2021/06/19 11:02:51;;;;;;;4.20;2.72;;;20.60;99.90;;;;;;5013457;28;20394;-76
2021/06/19 11:05:53;;;;;;;7.72;3.75;;;20.50;99.90;;;;;;5012862;28;20022;-75
2021/06/19 11:08:19;;;;;;;4.47;3.85;;;20.30;99.90;;;;;;4918774;29;20042;-75
2021/06/19 11:10:45;;;;;;;5.88;3.75;;;20.00;99.90;;;;;;4998815;28;20513;-75
2021/06/19 11:13:29;;;;;;;9.95;4.45;;;20.00;99.90;;;;;;5014175;28;20105;-76
2021/06/19 11:15:57;;;;;;;6.60;3.67;;;20.00;99.90;;;;;;5014058;28;20018;-75
2021/06/19 11:18:47;;;;;;;6.72;4.20;;;20.00;99.90;;;;;;5013881;28;20044;-75
2021/06/19 11:21:15;;;;;;;6.07;3.22;;;19.80;99.90;;;;;;5013984;28;20037;-74
2021/06/19 11:24:04;;;;;;;5.47;4.38;;;19.80;99.90;;;;;;5013941;28;20410;-76
2021/06/19 11:26:54;;;;;;;7.30;4.88;;;19.90;99.90;;;;;;5002216;28;20510;-75
2021/06/19 11:29:36;;;;;;;5.13;3.90;;;19.80;99.90;;;;;;5012461;28;20022;-74
2021/06/19 11:32:22;;;;;;;7.45;4.43;;;19.70;99.90;;;;;;5013719;28;20034;-75
2021/06/19 11:34:47;;;;;;;6.55;4.07;;;19.80;99.90;;;;;;5013782;28;20026;-75
2021/06/19 11:37:13;;;;;;;10.52;5.38;;;19.70;99.90;;;;;;5012143;28;20095;-74
2021/06/19 11:39:38;;;;;;;7.53;4.55;;;19.50;99.90;;;;;;5013564;28;20022;-75
2021/06/19 11:42:04;;;;;;;8.88;4.35;;;19.60;99.90;;;;;;5013615;28;20026;-75
2021/06/19 11:44:33;;;;;;;16.50;7.35;;;19.60;99.90;;;;;;5012252;28;20026;-75
2021/06/19 11:47:02;;;;;;;8.57;4.03;;;19.60;99.90;;;;;;5013944;28;20112;-75
2021/06/19 11:49:30;;;;;;;8.43;5.25;;;19.70;99.90;;;;;;5013251;28;20156;-75
2021/06/19 11:51:58;;;;;;;12.65;6.40;;;19.80;99.90;;;;;;5033484;28;20498;-75
2021/06/19 11:54:25;;;;;;;9.10;5.40;;;19.90;99.90;;;;;;5031916;28;20033;-75
2021/06/19 11:56:51;;;;;;;9.48;4.72;;;20.00;99.90;;;;;;5033111;28;20213;-75
2021/06/19 11:59:16;;;;;;;8.65;4.88;;;20.10;99.90;;;;;;5033116;28;20449;-75
2021/06/19 12:01:44;;;;;;;11.05;6.97;;;20.20;99.90;;;;;;5033169;28;20033;-75
2021/06/19 12:04:15;;;;;;;8.55;5.60;;;20.30;99.90;;;;;;5031744;28;20441;-75
2021/06/19 12:06:43;;;;;;;10.35;6.30;;;20.30;99.90;;;;;;5032915;28;20386;-75
2021/06/19 12:09:14;;;;;;;10.38;5.63;;;20.30;99.90;;;;;;5032736;28;20483;-75
2021/06/19 12:11:41;;;;;;;9.00;5.40;;;20.20;99.90;;;;;;5032952;28;20021;-75
2021/06/19 12:14:16;;;;;;;11.75;6.10;;;20.30;99.90;;;;;;5034393;28;20017;-75
2021/06/19 12:16:42;;;;;;;7.68;5.40;;;20.20;99.90;;;;;;5035574;28;20021;-75
2021/06/19 12:19:08;;;;;;;6.35;4.40;;;20.10;99.90;;;;;;5037132;28;20032;-75
2021/06/19 12:21:36;;;;;;;8.10;4.85;;;20.20;99.90;;;;;;5036873;28;20390;-75
2021/06/19 12:24:17;;;;;;;7.60;5.10;;;20.20;99.90;;;;;;5037149;28;20025;-75
2021/06/19 12:26:43;;;;;;;8.15;4.85;;;20.20;99.90;;;;;;5037033;28;20505;-75
2021/06/19 12:29:08;;;;;;;12.13;5.70;;;20.10;99.90;;;;;;5036900;28;20075;-75
2021/06/19 12:31:34;;;;;;;7.57;4.75;;;20.00;99.90;;;;;;5037438;28;20053;-76
2021/06/19 12:34:01;;;;;;;6.63;4.57;;;19.90;99.90;;;;;;5037366;28;20017;-75
2021/06/19 12:36:28;;;;;;;7.55;4.88;;;19.80;99.90;;;;;;5036727;28;20017;-75
2021/06/19 12:38:54;;;;;;;8.48;4.30;;;19.90;99.90;;;;;;5036445;28;20029;-75
2021/06/19 12:41:20;;;;;;;7.85;4.35;;;20.00;99.90;;;;;;5036583;28;20036;-75
2021/06/19 12:43:52;;;;;;;7.15;4.55;;;20.00;99.90;;;;;;5035205;28;20045;-76
2021/06/19 12:46:23;;;;;;;7.82;4.55;;;20.10;99.90;;;;;;5036406;28;20047;-76
2021/06/19 12:49:02;;;;;;;6.43;4.75;;;20.20;99.90;;;;;;5036245;28;20029;-76
2021/06/19 12:51:39;;;;;;;6.32;4.03;;;20.20;99.90;;;;;;5035513;28;20048;-75